createdAt,value
2022-12-03T00:03:51.535Z,15.90
2022-12-03T00:08:55.135Z,15.90
2022-12-03T00:13:58.669Z,15.90
2022-12-03T00:19:03.658Z,15.90
2022-12-03T00:24:07.807Z,15.90
2022-12-03T00:29:11.467Z,15.90
2022-12-03T00:34:16.391Z,15.90
2022-12-03T00:39:19.837Z,15.90
2022-12-03T00:44:23.338Z,15.90
2022-12-03T00:49:28.224Z,15.80
2022-12-03T00:54:32.459Z,15.80
2022-12-03T00:59:36.033Z,15.90
2022-12-03T01:04:41.056Z,16.00
2022-12-03T01:09:44.557Z,15.90
2022-12-03T01:14:48.078Z,15.90
2022-12-03T01:19:53.577Z,15.90
2022-12-03T01:24:57.082Z,15.80
2022-12-03T01:30:00.607Z,15.90
2022-12-03T01:35:06.332Z,15.80
2022-12-03T01:40:12.568Z,15.90
2022-12-03T01:45:22.771Z,15.80
2022-12-03T01:50:32.256Z,15.80
2022-12-03T01:55:35.749Z,15.90
2022-12-03T02:00:39.297Z,15.80
2022-12-03T02:05:44.439Z,15.80
2022-12-03T02:10:47.927Z,15.90
2022-12-03T02:15:51.630Z,15.80
2022-12-03T02:21:02.592Z,15.80
2022-12-03T02:26:07.504Z,15.80
2022-12-03T02:31:11.088Z,15.80
2022-12-03T02:36:14.725Z,15.80
2022-12-03T02:41:34.666Z,15.80
2022-12-03T02:46:38.206Z,15.80
2022-12-03T02:51:41.777Z,15.80
2022-12-03T02:56:46.602Z,15.80
2022-12-03T03:01:50.353Z,15.70
2022-12-03T03:06:54.017Z,15.80
2022-12-03T03:11:58.917Z,15.70
2022-12-03T03:17:02.376Z,15.80
2022-12-03T03:22:05.994Z,15.70
2022-12-03T03:27:11.190Z,15.80
2022-12-03T03:32:14.676Z,15.80
2022-12-03T03:37:18.310Z,15.80
2022-12-03T03:42:23.607Z,15.80
2022-12-03T03:47:27.096Z,15.70
2022-12-03T03:52:30.611Z,15.70
2022-12-03T03:57:35.570Z,15.60
2022-12-03T04:02:39.133Z,15.70
2022-12-03T04:07:42.650Z,15.70
2022-12-03T04:12:56.562Z,15.70
2022-12-03T04:18:17.367Z,15.70
2022-12-03T04:23:22.330Z,15.70
2022-12-03T04:28:47.137Z,15.70
2022-12-03T04:34:22.456Z,15.70
2022-12-03T04:39:26.045Z,15.70
2022-12-03T04:44:39.990Z,15.70
2022-12-03T04:49:45.713Z,15.60
2022-12-03T04:54:49.166Z,15.60
2022-12-03T04:59:54.034Z,15.70
2022-12-03T05:04:57.496Z,15.70
2022-12-03T05:10:00.992Z,15.70
2022-12-03T05:15:07.718Z,15.60
2022-12-03T05:20:29.585Z,15.50
2022-12-03T05:25:33.082Z,15.60
2022-12-03T05:30:38.109Z,15.60
2022-12-03T05:35:41.700Z,15.60
2022-12-03T05:40:45.137Z,15.60
2022-12-03T05:45:50.128Z,15.60
2022-12-03T05:50:53.545Z,15.60
2022-12-03T05:55:57.208Z,15.70
2022-12-03T06:01:02.142Z,15.60
2022-12-03T06:06:06.124Z,15.60
2022-12-03T06:11:09.594Z,15.60
2022-12-03T06:16:14.615Z,15.60
2022-12-03T06:21:18.122Z,15.50
2022-12-03T06:26:21.607Z,15.60
2022-12-03T06:31:26.899Z,15.60
2022-12-03T06:36:30.476Z,15.60
2022-12-03T06:41:33.869Z,15.60
2022-12-03T06:46:38.859Z,15.50
2022-12-03T06:51:42.323Z,15.60
2022-12-03T06:56:45.881Z,15.50
2022-12-03T07:01:50.759Z,15.50
2022-12-03T07:06:54.197Z,15.40
2022-12-03T07:11:57.590Z,15.60
2022-12-03T07:17:02.386Z,15.50
2022-12-03T07:22:05.897Z,15.50
2022-12-03T07:27:09.364Z,15.50
2022-12-03T07:32:14.226Z,15.50
2022-12-03T07:37:22.678Z,15.50
2022-12-03T07:42:26.727Z,15.50
2022-12-03T07:47:46.792Z,15.50
2022-12-03T07:52:50.166Z,15.50
2022-12-03T07:57:53.599Z,15.50
2022-12-03T08:02:58.388Z,15.50
2022-12-03T08:08:02.144Z,15.60
2022-12-03T08:13:09.138Z,15.50
2022-12-03T08:18:16.742Z,15.50
2022-12-03T08:23:21.689Z,15.50
2022-12-03T08:28:27.213Z,15.50
2022-12-03T08:33:35.538Z,15.50
2022-12-03T08:38:38.958Z,15.40
2022-12-03T08:43:43.957Z,15.40
2022-12-03T08:48:49.734Z,15.40
2022-12-03T08:53:59.799Z,15.40
2022-12-03T08:59:22.053Z,15.40
2022-12-03T09:04:30.284Z,15.40
2022-12-03T09:09:34.843Z,15.30
2022-12-03T09:14:38.282Z,15.40
2022-12-03T09:19:46.043Z,15.30
2022-12-03T09:24:49.922Z,15.30
2022-12-03T09:29:53.319Z,15.30
2022-12-03T09:34:58.117Z,15.30
2022-12-03T09:40:01.699Z,15.30
2022-12-03T09:45:11.033Z,15.40
2022-12-03T09:50:18.197Z,15.30
2022-12-03T09:55:23.934Z,15.30
2022-12-03T10:00:29.364Z,15.30
2022-12-03T10:05:34.690Z,15.30
2022-12-03T10:10:38.906Z,15.30
2022-12-03T10:15:42.403Z,15.30
2022-12-03T10:20:47.535Z,15.40
2022-12-03T10:25:52.636Z,15.60
2022-12-03T10:30:56.846Z,16.10
2022-12-03T10:36:17.639Z,16.30
2022-12-03T10:41:25.608Z,16.50
2022-12-03T10:46:29.390Z,16.50
2022-12-03T10:51:34.385Z,16.30
2022-12-03T10:56:37.962Z,16.20
2022-12-03T11:01:41.626Z,16.50
2022-12-03T11:06:46.653Z,16.70
2022-12-03T11:11:50.648Z,16.80
2022-12-03T11:17:12.082Z,17.00
2022-12-03T11:22:41.275Z,17.10
2022-12-03T11:27:45.190Z,17.20
2022-12-03T11:33:22.125Z,17.40
2022-12-03T11:38:47.394Z,17.40
2022-12-03T11:44:02.943Z,17.60
2022-12-03T11:49:33.894Z,17.70
2022-12-03T11:54:39.114Z,17.90
2022-12-03T12:00:01.120Z,18.00
2022-12-03T12:05:18.944Z,18.10
2022-12-03T12:10:46.368Z,18.30
2022-12-03T12:15:50.510Z,18.50
2022-12-03T12:20:54.068Z,18.50
2022-12-03T12:26:08.416Z,18.60
2022-12-03T12:31:12.462Z,18.90
2022-12-03T12:36:15.890Z,19.10
2022-12-03T12:41:20.645Z,19.40
2022-12-03T12:46:47.400Z,19.70
2022-12-03T12:51:49.621Z,20.00
2022-12-03T12:56:54.417Z,20.40
2022-12-03T13:01:57.846Z,20.80
2022-12-03T13:07:01.297Z,21.20
2022-12-03T13:12:07.763Z,21.40
2022-12-03T13:17:15.730Z,21.50
2022-12-03T13:22:22.067Z,21.40
2022-12-03T13:27:29.922Z,21.50
2022-12-03T13:32:35.162Z,21.50
2022-12-03T13:37:39.252Z,21.20
2022-12-03T13:42:46.674Z,20.90
2022-12-03T13:47:52.250Z,20.50
2022-12-03T13:52:56.157Z,20.10
2022-12-03T13:58:01.127Z,19.90
2022-12-03T14:03:04.760Z,19.60
2022-12-03T14:08:08.297Z,19.50
2022-12-03T14:13:13.257Z,19.30
2022-12-03T14:18:16.750Z,19.30
2022-12-03T14:23:20.283Z,19.10
2022-12-03T14:28:25.192Z,19.00
2022-12-03T14:33:28.709Z,19.00
2022-12-03T14:38:32.210Z,19.00
2022-12-03T14:43:37.205Z,18.90
2022-12-03T14:48:40.696Z,18.80
2022-12-03T14:53:44.229Z,18.80
2022-12-03T14:58:49.165Z,18.90
2022-12-03T15:03:52.696Z,18.80
2022-12-03T15:08:56.237Z,18.80
2022-12-03T15:14:01.111Z,18.80
2022-12-03T15:19:04.621Z,18.70
2022-12-03T15:24:08.953Z,18.70
2022-12-03T15:29:13.844Z,18.70
2022-12-03T15:34:22.151Z,18.80
2022-12-03T15:39:26.541Z,18.70
2022-12-03T15:44:31.441Z,18.60
2022-12-03T15:49:34.981Z,18.50
2022-12-03T15:54:38.486Z,18.40
2022-12-03T15:59:43.440Z,18.50
2022-12-03T16:04:46.974Z,18.50
2022-12-03T16:09:50.599Z,18.50
2022-12-03T16:14:55.722Z,18.30
2022-12-03T16:19:59.209Z,18.20
2022-12-03T16:25:03.466Z,18.10
2022-12-03T16:30:10.117Z,18.10
2022-12-03T16:35:13.639Z,18.00
2022-12-03T16:40:17.091Z,17.90
2022-12-03T16:45:51.468Z,18.00
2022-12-03T16:50:55.055Z,17.90
2022-12-03T16:55:58.560Z,17.80
2022-12-03T17:01:03.528Z,17.70
2022-12-03T17:06:07.338Z,17.80
2022-12-03T17:11:10.763Z,17.70
2022-12-03T17:16:16.156Z,17.60
2022-12-03T17:21:19.570Z,17.70
2022-12-03T17:26:22.963Z,17.70
2022-12-03T17:31:27.802Z,17.70
2022-12-03T17:36:31.229Z,17.70
2022-12-03T17:41:34.601Z,17.60
2022-12-03T17:46:39.429Z,17.60
2022-12-03T17:51:42.890Z,17.60
2022-12-03T17:56:46.482Z,17.70
2022-12-03T18:01:51.321Z,17.70
2022-12-03T18:07:00.527Z,17.50
2022-12-03T18:12:05.774Z,17.50
2022-12-03T18:17:10.797Z,17.60
2022-12-03T18:22:14.356Z,17.60
2022-12-03T18:27:17.738Z,17.60
2022-12-03T18:32:30.253Z,17.70
2022-12-03T18:37:34.255Z,17.70
2022-12-03T18:42:37.637Z,17.60
2022-12-03T18:47:42.461Z,17.60
2022-12-03T18:52:45.910Z,17.60
2022-12-03T18:57:49.261Z,17.60
2022-12-03T19:03:03.168Z,17.60
2022-12-03T19:08:14.425Z,17.50
2022-12-03T19:13:17.924Z,17.50
2022-12-03T19:18:22.730Z,17.50
2022-12-03T19:23:26.168Z,17.40
2022-12-03T19:28:30.177Z,17.40
2022-12-03T19:33:35.621Z,17.50
2022-12-03T19:38:39.656Z,17.30
2022-12-03T19:43:43.101Z,17.30
2022-12-03T19:48:48.202Z,17.30
2022-12-03T19:53:51.620Z,17.40
2022-12-03T19:58:56.232Z,17.30
2022-12-03T20:04:02.730Z,17.20
2022-12-03T20:09:08.876Z,17.20
2022-12-03T20:14:14.165Z,17.20
2022-12-03T20:19:19.298Z,17.20
2022-12-03T20:24:22.682Z,17.10
2022-12-03T20:29:26.060Z,17.20
2022-12-03T20:34:30.837Z,17.10
2022-12-03T20:39:34.284Z,17.20
2022-12-03T20:44:38.625Z,17.00
2022-12-03T20:49:43.429Z,17.20
2022-12-03T20:54:46.825Z,17.10
2022-12-03T20:59:50.397Z,17.10
2022-12-03T21:04:55.504Z,17.00
2022-12-03T21:09:58.957Z,17.00
2022-12-03T21:15:02.471Z,17.00
2022-12-03T21:20:08.649Z,17.10
2022-12-03T21:25:12.131Z,16.90
2022-12-03T21:30:16.295Z,17.00
2022-12-03T21:35:21.196Z,16.90
2022-12-03T21:40:24.792Z,16.90
2022-12-03T21:45:28.270Z,16.90
2022-12-03T21:50:33.208Z,16.90
2022-12-03T21:55:36.746Z,16.90
2022-12-03T22:00:40.161Z,16.90
2022-12-03T22:05:45.111Z,16.90
2022-12-03T22:10:48.592Z,16.90
2022-12-03T22:15:52.144Z,16.70
2022-12-03T22:20:57.059Z,16.80
2022-12-03T22:26:03.288Z,16.70
2022-12-03T22:31:07.665Z,16.70
2022-12-03T22:36:20.126Z,16.80
2022-12-03T22:41:24.728Z,16.70
2022-12-03T22:46:28.251Z,16.80
2022-12-03T22:51:33.121Z,17.00
2022-12-03T22:56:37.578Z,16.90
2022-12-03T23:01:41.928Z,17.00
2022-12-03T23:06:46.837Z,16.70
2022-12-03T23:11:50.262Z,16.70
2022-12-03T23:16:53.804Z,16.90
2022-12-03T23:21:59.358Z,16.80
2022-12-03T23:27:02.835Z,16.80
2022-12-03T23:32:06.399Z,17.00
2022-12-03T23:37:11.255Z,16.90
2022-12-03T23:42:14.910Z,16.80
2022-12-03T23:47:18.430Z,16.90
2022-12-03T23:52:23.355Z,16.90
2022-12-03T23:57:26.857Z,16.80
